YSSY/SYD METAR and TAF weather

Enter ICAO airport designator
Station Type Date Time Source
YSSY METAR 2019/06/17 12:30 UTC NOAA

YSSY 171230Z 27008KT 9999 VCSH FEW015 SCT018 BKN045 13/11 Q1020 NOSIG


Station Type Date Time Source
YSSY Decoded METAR 2019/06/17 12:30 UTC NOAA

Sydney Airport, Australia (YSSY) 33-57S 151-11E 3M
Jun 17, 2019 - 08:30 AM EDT / 2019.06.17 1230 UTC
Wind: from the W (270 degrees) at 9 MPH (8 KT):0
Visibility: greater than 7 mile(s):0
Sky conditions: mostly cloudy
Weather: showers in the vicinity
Temperature: 55 F (13 C)
Dew Point: 51 F (11 C)
Relative Humidity: 87%
Pressure (altimeter): 30.12 in. Hg (1020 hPa)
ob: YSSY 171230Z 27008KT 9999 VCSH FEW015 SCT018 BKN045 13/11 Q1020 NOSIG
cycle: 12

Station Type Date Time Source
YSSY TAF 2019/06/17 12:39 UTC NOAA

TAF YSSY 171120Z 1712/1818 19012KT 9999 -SHRA SCT025 BKN040
FM171400 25008KT 9999 -SHRA SCT030
FM171800 29008KT 9999 -SHRA SCT025
FM180000 29008KT 9999 SCT035
FM180300 24008KT 9999 SCT035
FM181600 29008KT CAVOK

Example: see airport list